Time;durP1;ratioP1;P1;durP2;ratioP2;P2;SDS_P1;SDS_P2;PMS_P1;PMS_P2;Temp;Humidity;BMP_temperature;BMP_pressure;BME280_temperature;BME280_humidity;BME280_pressure;Samples;Min_cycle;Max_cycle;Signal;HPM_P1;HPM_P2
2022/07/18 00:00:12;;;;;;;7.62;2.62;;;;;;;12.98;69.82;102004.00;1670209;85;21782;-87
2022/07/18 00:02:40;;;;;;;8.00;2.90;;;;;;;13.01;69.91;102008.52;1669891;85;21598;-88
2022/07/18 00:05:07;;;;;;;5.87;3.00;;;;;;;13.02;69.92;102007.65;1670192;84;21519;-88
2022/07/18 00:07:34;;;;;;;7.15;2.55;;;;;;;13.03;70.01;102001.53;1662997;84;21098;-89
2022/07/18 00:10:01;;;;;;;10.50;3.00;;;;;;;13.02;70.07;101993.11;1651727;84;21156;-89
2022/07/18 00:12:28;;;;;;;6.45;2.60;;;;;;;13.07;70.16;101994.18;1649353;84;21771;-88
2022/07/18 00:14:56;;;;;;;9.00;2.90;;;;;;;13.09;70.23;102000.41;1660303;84;21068;-87
2022/07/18 00:17:23;;;;;;;5.10;2.60;;;;;;;13.10;70.25;101999.59;1655110;84;22174;-89
2022/07/18 00:19:50;;;;;;;4.90;2.50;;;;;;;13.13;70.35;101992.17;1657698;84;22283;-89
2022/07/18 00:22:18;;;;;;;7.22;3.27;;;;;;;13.13;70.42;101991.73;1656772;84;22450;-89
2022/07/18 00:24:45;;;;;;;6.58;2.50;;;;;;;13.16;70.52;101989.64;1663772;85;21937;-88
2022/07/18 00:27:12;;;;;;;12.88;3.30;;;;;;;13.18;70.61;101989.27;1663693;85;21526;-88
2022/07/18 00:29:39;;;;;;;6.35;2.90;;;;;;;13.20;70.67;101989.78;1663534;86;21076;-89
2022/07/18 00:32:07;;;;;;;8.33;2.98;;;;;;;13.23;70.72;101988.98;1663631;85;21159;-88
2022/07/18 00:34:34;;;;;;;5.92;2.70;;;;;;;13.24;70.78;101985.50;1664948;85;21014;-89
2022/07/18 00:37:01;;;;;;;7.25;2.60;;;;;;;13.27;70.91;101989.98;1665538;86;21733;-89
2022/07/18 00:39:28;;;;;;;11.30;2.92;;;;;;;13.27;70.96;101986.94;1665493;85;21539;-89
2022/07/18 00:41:54;;;;;;;6.33;3.05;;;;;;;13.29;71.04;101993.58;1665031;86;21546;-88
2022/07/18 00:44:24;;;;;;;6.40;2.60;;;;;;;13.31;71.09;101996.80;1664112;85;21069;-88
2022/07/18 00:46:55;;;;;;;8.95;3.05;;;;;;;13.32;71.11;101994.61;1663923;84;21088;-89
2022/07/18 00:49:22;;;;;;;9.35;3.00;;;;;;;13.32;71.16;101991.08;1663884;85;21762;-88
2022/07/18 00:51:49;;;;;;;8.95;2.70;;;;;;;13.33;71.25;101991.57;1663949;84;21128;-88
2022/07/18 00:54:16;;;;;;;6.10;2.83;;;;;;;13.32;71.31;101989.76;1663842;85;21085;-88
2022/07/18 00:56:43;;;;;;;7.08;2.77;;;;;;;13.32;71.29;101997.69;1658592;85;21088;-87
2022/07/18 00:59:10;;;;;;;6.22;3.12;;;;;;;13.30;71.40;101998.03;1661200;84;21117;-88
2022/07/18 01:01:45;;;;;;;8.10;3.00;;;;;;;13.28;71.48;101997.97;1663018;84;21783;-88
2022/07/18 01:04:21;;;;;;;7.45;3.02;;;;;;;13.30;71.58;101993.67;1663254;85;21518;-88
2022/07/18 01:06:50;;;;;;;5.28;2.77;;;;;;;13.31;71.70;101999.87;1661569;84;21108;-88
2022/07/18 01:09:18;;;;;;;6.70;3.17;;;;;;;13.31;71.73;101995.48;1628303;87;21729;-88
2022/07/18 01:11:45;;;;;;;6.22;3.00;;;;;;;13.32;71.80;101999.91;1649359;85;21114;-88
2022/07/18 01:14:12;;;;;;;11.90;2.95;;;;;;;13.32;71.93;101995.05;1651069;84;21761;-87
2022/07/18 01:16:39;;;;;;;7.47;3.58;;;;;;;13.31;71.99;101988.88;1641011;84;21181;-88
2022/07/18 01:19:06;;;;;;;5.55;2.70;;;;;;;13.30;72.08;101983.48;1663157;83;21173;-88
2022/07/18 01:21:33;;;;;;;10.05;2.95;;;;;;;13.30;72.12;101988.78;1662915;83;21370;-88
2022/07/18 01:24:00;;;;;;;5.72;2.90;;;;;;;13.29;72.20;101987.89;1662857;83;21658;-88
2022/07/18 01:26:26;;;;;;;5.80;2.90;;;;;;;13.28;72.28;101980.78;1665386;83;22697;-88
2022/07/18 01:28:53;;;;;;;7.45;2.62;;;;;;;13.30;72.34;101980.45;1659418;83;21013;-88
2022/07/18 01:31:20;;;;;;;8.13;2.90;;;;;;;13.30;72.51;101976.48;1629374;86;21106;-88
2022/07/18 01:33:46;;;;;;;8.53;3.10;;;;;;;13.32;72.59;101976.54;1643639;84;21158;-87
2022/07/18 01:36:15;;;;;;;6.87;2.98;;;;;;;13.33;72.56;101975.27;1629323;86;21094;-88
2022/07/18 01:38:42;;;;;;;9.00;2.95;;;;;;;13.33;72.67;101975.70;1643836;85;21772;-88
2022/07/18 01:41:08;;;;;;;5.08;2.80;;;;;;;13.33;72.78;101975.27;1629727;86;21126;-88
2022/07/18 01:43:39;;;;;;;7.00;3.25;;;;;;;13.34;72.84;101965.58;1643965;84;21671;-88
2022/07/18 01:46:06;;;;;;;5.60;2.45;;;;;;;13.35;72.93;101970.93;1610057;86;21781;-88
2022/07/18 01:48:33;;;;;;;5.30;2.55;;;;;;;13.35;72.96;101966.96;1644162;85;21082;-88
2022/07/18 01:51:00;;;;;;;6.80;2.77;;;;;;;13.34;73.02;101965.15;1627053;86;21714;-88
2022/07/18 01:53:27;;;;;;;4.80;2.65;;;;;;;13.33;73.12;101960.73;1656173;84;22068;-87
2022/07/18 01:55:54;;;;;;;8.98;3.37;;;;;;;13.34;73.21;101967.80;1657376;84;20999;-88
2022/07/18 01:58:21;;;;;;;7.72;2.92;;;;;;;13.36;73.43;101969.17;1629568;86;21122;-88
2022/07/18 02:00:48;;;;;;;8.85;3.62;;;;;;;13.36;73.58;101966.13;1664677;85;21074;-88
2022/07/18 02:03:14;;;;;;;5.53;2.70;;;;;;;13.39;73.75;101968.85;1648741;84;21828;-88
2022/07/18 02:05:42;;;;;;;5.80;2.52;;;;;;;13.43;73.89;101968.97;1629300;86;21572;-88
2022/07/18 02:08:08;;;;;;;6.80;2.72;;;;;;;13.45;74.04;101966.83;1660002;83;21126;-88
2022/07/18 02:10:35;;;;;;;7.47;3.00;;;;;;;13.50;74.25;101969.65;1689476;83;21106;-88
2022/07/18 02:13:03;;;;;;;8.40;2.77;;;;;;;13.55;74.63;101966.70;1684794;83;21515;-88
2022/07/18 02:15:29;;;;;;;8.95;2.52;;;;;;;13.62;74.78;101960.77;1674433;83;23257;-88
2022/07/18 02:17:56;;;;;;;6.95;3.10;;;;;;;13.68;75.03;101958.73;1674309;83;21078;-88
2022/07/18 02:20:23;;;;;;;7.80;2.75;;;;;;;13.74;75.20;101962.48;1685629;83;21124;-88
2022/07/18 02:22:49;;;;;;;10.23;2.80;;;;;;;13.81;75.35;101962.23;1691855;83;21149;-88
2022/07/18 02:25:16;;;;;;;8.35;2.90;;;;;;;13.87;75.38;101959.80;1691929;84;21118;-88
2022/07/18 02:27:43;;;;;;;9.38;3.05;;;;;;;13.93;75.44;101957.34;1683809;84;21759;-88
2022/07/18 02:30:10;;;;;;;7.87;3.00;;;;;;;13.99;75.49;101961.48;1688425;84;21127;-88
2022/07/18 02:32:37;;;;;;;5.15;3.05;;;;;;;14.07;75.57;101955.09;1695191;84;21103;-88
2022/07/18 02:35:06;;;;;;;11.35;3.30;;;;;;;14.13;75.61;101952.66;1671761;84;21040;-88
2022/07/18 02:37:33;;;;;;;6.95;3.00;;;;;;;14.19;75.57;101954.58;1677571;84;21059;-88
2022/07/18 02:39:59;;;;;;;7.15;3.12;;;;;;;14.24;75.60;101956.91;1673900;84;22645;-88
2022/07/18 02:42:27;;;;;;;9.85;3.52;;;;;;;14.32;75.57;101958.45;1674192;85;21010;-88
2022/07/18 02:44:54;;;;;;;9.13;2.50;;;;;;;14.36;75.52;101955.96;1665611;85;21566;-88
2022/07/18 02:47:21;;;;;;;7.33;2.92;;;;;;;14.40;75.51;101955.63;1672836;84;21107;-88
2022/07/18 02:49:48;;;;;;;10.98;3.27;;;;;;;14.45;75.54;101953.09;1670988;85;21076;-88
2022/07/18 02:52:14;;;;;;;9.83;3.22;;;;;;;14.49;75.56;101954.97;1672627;84;21682;-88
2022/07/18 02:54:41;;;;;;;8.80;2.65;;;;;;;14.53;75.53;101956.88;1673204;84;22176;-88
2022/07/18 02:57:08;;;;;;;6.47;3.10;;;;;;;14.56;75.55;101962.23;1674326;85;21553;-88
2022/07/18 02:59:34;;;;;;;6.83;2.87;;;;;;;14.60;75.54;101959.28;1674194;85;21088;-88
2022/07/18 03:02:01;;;;;;;7.90;2.85;;;;;;;14.63;75.65;101955.41;1672842;85;21100;-88
2022/07/18 03:04:28;;;;;;;8.85;2.83;;;;;;;14.69;75.73;101955.56;1672669;85;21761;-88
2022/07/18 03:06:54;;;;;;;12.78;3.60;;;;;;;14.74;75.76;101953.95;1659550;84;21058;-88
2022/07/18 03:09:21;;;;;;;9.33;2.95;;;;;;;14.79;75.69;101958.95;1679593;83;21072;-87
2022/07/18 03:11:48;;;;;;;8.15;2.90;;;;;;;14.85;75.73;101960.44;1662952;85;21350;-88
2022/07/18 03:14:15;;;;;;;7.65;3.70;;;;;;;14.90;75.71;101957.48;1670517;84;21975;-88
2022/07/18 03:16:42;;;;;;;9.28;2.80;;;;;;;14.97;75.70;101961.17;1687810;83;21785;-88
2022/07/18 03:19:09;;;;;;;7.72;2.47;;;;;;;15.02;75.59;101957.34;1716442;82;21070;-88
2022/07/18 03:21:35;;;;;;;9.13;2.85;;;;;;;15.08;75.58;101956.16;1700067;83;21119;-87
2022/07/18 03:24:02;;;;;;;6.05;2.65;;;;;;;15.15;75.56;101960.77;1700179;83;21081;-88
2022/07/18 03:26:29;;;;;;;6.58;2.85;;;;;;;15.23;75.50;101960.52;1700162;83;21077;-88
2022/07/18 03:28:56;;;;;;;8.63;3.20;;;;;;;15.29;75.39;101955.36;1700454;83;21743;-87
2022/07/18 03:31:23;;;;;;;11.12;3.83;;;;;;;15.36;75.30;101961.73;1696036;82;21522;-88
2022/07/18 03:33:50;;;;;;;8.75;3.12;;;;;;;15.44;75.23;101962.80;1699621;83;21113;-88
2022/07/18 03:36:16;;;;;;;6.40;3.00;;;;;;;15.51;75.18;101962.10;1696660;83;21176;-88
2022/07/18 03:38:43;;;;;;;12.45;3.83;;;;;;;15.59;75.03;101956.97;1700262;84;21114;-88
2022/07/18 03:41:11;;;;;;;6.87;3.00;;;;;;;15.69;74.97;101954.09;1698135;84;21764;-88
2022/07/18 03:43:38;;;;;;;5.47;2.83;;;;;;;15.78;74.84;101955.67;1704870;82;21154;-89
2022/07/18 03:46:05;;;;;;;5.58;2.95;;;;;;;15.88;74.71;101958.13;1700312;83;21079;-88
2022/07/18 03:48:32;;;;;;;9.63;2.85;;;;;;;15.98;74.56;101963.21;1689245;83;21090;-88
2022/07/18 03:50:59;;;;;;;5.60;2.58;;;;;;;16.05;74.41;101963.38;1709252;83;21129;-88
2022/07/18 03:53:26;;;;;;;4.53;2.85;;;;;;;16.13;74.28;101962.21;1692218;82;21754;-89
2022/07/18 03:55:53;;;;;;;6.30;2.90;;;;;;;16.21;74.14;101961.05;1694635;83;21433;-89
2022/07/18 03:58:20;;;;;;;7.05;3.10;;;;;;;16.27;74.04;101959.84;1695837;83;22055;-89
2022/07/18 04:00:46;;;;;;;8.10;3.20;;;;;;;16.33;73.89;101959.98;1695550;83;21095;-89
2022/07/18 04:03:13;;;;;;;8.45;3.05;;;;;;;16.39;73.73;101964.53;1695354;83;21091;-89
2022/07/18 04:05:40;;;;;;;6.20;2.50;;;;;;;16.45;73.64;101960.66;1695481;83;22985;-89
2022/07/18 04:08:07;;;;;;;8.05;2.90;;;;;;;16.54;73.55;101959.52;1695801;83;21635;-89
2022/07/18 04:10:34;;;;;;;6.08;2.52;;;;;;;16.64;73.42;101957.93;1722621;82;21492;-88
2022/07/18 04:13:00;;;;;;;6.53;2.75;;;;;;;16.74;73.27;101954.56;1722921;82;21084;-89
2022/07/18 04:15:27;;;;;;;7.47;2.80;;;;;;;16.87;73.18;101945.09;1706941;82;21497;-90
2022/07/18 04:17:54;;;;;;;6.60;2.65;;;;;;;17.00;73.06;101944.44;1706584;82;21802;-89
2022/07/18 04:20:21;;;;;;;7.42;3.00;;;;;;;17.13;72.82;101956.19;1716586;82;21145;-89
2022/07/18 04:22:56;;;;;;;9.40;2.90;;;;;;;17.21;72.63;101947.92;1722713;82;21084;-89
2022/07/18 04:25:26;;;;;;;6.55;3.08;;;;;;;17.33;72.50;101941.90;1698575;82;21030;-89
2022/07/18 04:27:53;;;;;;;8.18;2.90;;;;;;;17.44;72.35;101944.30;1670689;83;20989;-90
2022/07/18 04:30:23;;;;;;;4.40;2.60;;;;;;;17.56;72.13;101941.36;1697516;82;21733;-89
2022/07/18 04:32:50;;;;;;;6.45;2.90;;;;;;;17.66;71.91;101939.28;1696265;83;21097;-89
2022/07/18 04:35:17;;;;;;;7.03;2.47;;;;;;;17.77;71.82;101940.78;1695284;83;21137;-89
2022/07/18 04:37:44;;;;;;;8.00;4.60;;;;;;;17.88;71.52;101942.75;1695189;83;21097;-89
2022/07/18 04:40:11;;;;;;;6.05;3.15;;;;;;;18.00;71.47;101939.38;1694915;83;21093;-89
2022/07/18 04:42:38;;;;;;;6.87;3.10;;;;;;;18.12;71.25;101939.97;1694778;83;21672;-89
2022/07/18 04:45:05;;;;;;;9.70;3.75;;;;;;;18.22;70.94;101941.86;1695026;83;22129;-89
2022/07/18 04:47:32;;;;;;;5.62;2.90;;;;;;;18.31;70.79;101942.87;1695440;83;21097;-90
2022/07/18 04:49:59;;;;;;;5.67;2.98;;;;;;;18.44;70.64;101949.68;1675718;83;21090;-89
2022/07/18 04:52:26;;;;;;;6.03;2.80;;;;;;;18.53;70.42;101946.69;1675060;84;21968;-89
2022/07/18 04:54:53;;;;;;;8.35;3.95;;;;;;;18.62;70.24;101941.01;1690594;83;21813;-89
2022/07/18 04:57:20;;;;;;;9.23;4.17;;;;;;;18.74;70.06;101944.69;1721945;82;21666;-89
2022/07/18 04:59:47;;;;;;;5.15;2.80;;;;;;;18.86;69.87;101951.48;1721992;82;21607;-88
2022/07/18 05:02:14;;;;;;;5.03;3.00;;;;;;;18.97;69.76;101945.81;1722033;82;21096;-88
2022/07/18 05:04:41;;;;;;;7.65;3.10;;;;;;;19.11;69.50;101944.63;1716540;82;21089;-90
2022/07/18 05:07:08;;;;;;;7.50;4.65;;;;;;;19.18;69.14;101950.90;1687652;83;21748;-88
2022/07/18 05:09:34;;;;;;;7.17;2.70;;;;;;;19.17;68.88;101956.69;1711381;82;21179;-88
2022/07/18 05:12:01;;;;;;;6.17;2.80;;;;;;;19.17;68.75;101951.80;1680228;83;21571;-88
2022/07/18 05:14:28;;;;;;;8.15;3.75;;;;;;;19.17;68.70;101948.67;1703040;83;21203;-88
2022/07/18 05:16:55;;;;;;;3.65;2.77;;;;;;;19.20;68.59;101951.38;1680283;83;21089;-88
2022/07/18 05:19:22;;;;;;;5.40;2.87;;;;;;;19.22;68.39;101953.62;1680372;83;21748;-88
2022/07/18 05:21:48;;;;;;;10.65;5.45;;;;;;;19.23;68.39;101954.06;1683161;83;21122;-87
2022/07/18 05:24:16;;;;;;;7.03;3.10;;;;;;;19.33;68.45;101949.72;1700160;83;21066;-89
2022/07/18 05:26:43;;;;;;;5.78;2.52;;;;;;;19.47;68.29;101955.60;1702572;83;21070;-89
2022/07/18 05:29:12;;;;;;;8.40;3.42;;;;;;;19.64;68.24;101954.38;1698901;82;22319;-88
2022/07/18 05:31:41;;;;;;;7.53;2.58;;;;;;;19.79;67.95;101962.52;1685220;83;21890;-89
2022/07/18 05:34:08;;;;;;;9.93;2.55;;;;;;;19.90;67.60;101958.14;1700402;83;22139;-88
2022/07/18 05:36:35;;;;;;;6.83;2.75;;;;;;;20.06;67.61;101959.55;1670391;85;21497;-88
2022/07/18 05:39:02;;;;;;;5.65;3.08;;;;;;;20.23;67.28;101962.30;1692646;83;21105;-88
2022/07/18 05:41:29;;;;;;;4.65;2.40;;;;;;;20.38;66.94;101967.28;1684152;83;21083;-88
2022/07/18 05:43:55;;;;;;;7.92;2.85;;;;;;;20.50;66.61;101959.73;1702387;82;22929;-88
2022/07/18 05:46:22;;;;;;;6.15;2.45;;;;;;;20.71;66.50;101962.06;1702091;83;21563;-88
2022/07/18 05:48:49;;;;;;;8.65;2.47;;;;;;;21.14;66.65;101958.11;1702375;82;20991;-89
2022/07/18 05:51:15;;;;;;;5.22;2.37;;;;;;;21.71;66.18;101956.75;1702216;83;21505;-88
2022/07/18 05:53:42;;;;;;;7.37;5.08;;;;;;;22.26;65.48;101957.97;1702226;83;21075;-88
2022/07/18 05:56:10;;;;;;;5.80;2.85;;;;;;;22.66;64.40;101951.05;1702565;83;22868;-88
2022/07/18 05:58:36;;;;;;;6.78;3.40;;;;;;;22.87;63.58;101954.48;1702552;83;20959;-88
2022/07/18 06:01:03;;;;;;;6.05;3.83;;;;;;;22.96;62.62;101956.23;1702831;83;21047;-89
2022/07/18 06:03:30;;;;;;;7.35;2.83;;;;;;;22.91;61.82;101955.78;1700998;83;21066;-88
2022/07/18 06:05:57;;;;;;;6.03;3.05;;;;;;;22.89;61.84;101954.02;1667844;84;21104;-88
2022/07/18 06:08:24;;;;;;;4.47;2.62;;;;;;;22.98;61.70;101955.77;1668144;84;21740;-88
2022/07/18 06:10:51;;;;;;;5.10;2.55;;;;;;;23.04;61.33;101949.91;1654622;83;21398;-88
2022/07/18 06:13:18;;;;;;;6.22;2.30;;;;;;;23.16;61.03;101949.38;1684891;83;21631;-89
2022/07/18 06:15:45;;;;;;;6.30;2.50;;;;;;;23.28;60.65;101947.94;1706717;83;21117;-88
2022/07/18 06:18:11;;;;;;;5.90;2.40;;;;;;;23.29;60.29;101947.94;1706932;83;21085;-89
2022/07/18 06:20:38;;;;;;;6.03;2.37;;;;;;;23.33;60.12;101943.86;1706989;83;21713;-88
2022/07/18 06:23:05;;;;;;;3.40;2.17;;;;;;;23.38;59.89;101947.40;1708319;83;21037;-89
2022/07/18 06:25:32;;;;;;;4.37;2.10;;;;;;;23.41;59.51;101949.61;1709446;83;21054;-88
2022/07/18 06:27:58;;;;;;;8.18;2.25;;;;;;;23.40;59.11;101946.47;1700230;83;21123;-87
2022/07/18 06:30:25;;;;;;;7.22;2.85;;;;;;;23.43;59.05;101946.91;1685843;83;21146;-88
2022/07/18 06:32:52;;;;;;;6.03;3.20;;;;;;;23.48;58.80;101946.39;1682822;83;21760;-89
2022/07/18 06:35:18;;;;;;;5.67;3.30;;;;;;;23.45;58.60;101951.36;1685220;84;21587;-89
2022/07/18 06:37:46;;;;;;;5.72;3.17;;;;;;;23.38;58.33;101950.97;1681735;83;21094;-88
2022/07/18 06:40:13;;;;;;;6.62;2.40;;;;;;;23.32;58.18;101947.47;1689319;83;21154;-89
2022/07/18 06:42:39;;;;;;;4.78;2.35;;;;;;;23.19;57.94;101949.36;1655997;84;21122;-88
2022/07/18 06:45:08;;;;;;;5.05;2.65;;;;;;;23.08;57.99;101953.00;1662173;84;21756;-89
2022/07/18 06:47:34;;;;;;;4.72;2.05;;;;;;;22.99;57.80;101949.47;1688990;83;21063;-89
2022/07/18 06:50:01;;;;;;;5.05;2.85;;;;;;;22.92;58.07;101948.64;1690250;83;21594;-88
2022/07/18 06:52:28;;;;;;;4.75;2.37;;;;;;;22.94;58.07;101947.27;1692503;83;21213;-89
2022/07/18 06:54:55;;;;;;;6.33;2.60;;;;;;;23.00;58.18;101944.09;1692341;83;21500;-89
2022/07/18 06:57:21;;;;;;;5.33;2.80;;;;;;;23.18;58.27;101951.59;1692276;83;21541;-88
2022/07/18 06:59:48;;;;;;;5.15;2.42;;;;;;;23.31;58.15;101945.67;1692079;83;21174;-89
2022/07/18 07:02:16;;;;;;;7.37;3.50;;;;;;;23.41;57.82;101947.38;1692221;83;22009;-89
2022/07/18 07:04:43;;;;;;;6.45;2.62;;;;;;;23.37;57.41;101946.52;1692174;83;22303;-89
2022/07/18 07:07:10;;;;;;;6.05;2.55;;;;;;;23.29;57.49;101947.94;1692371;83;21693;-89
2022/07/18 07:09:36;;;;;;;4.70;1.95;;;;;;;23.21;57.53;101943.06;1687253;83;21463;-89
2022/07/18 07:12:03;;;;;;;4.15;2.20;;;;;;;23.11;57.49;101948.08;1672595;84;21068;-88
2022/07/18 07:14:30;;;;;;;5.10;2.33;;;;;;;22.99;57.60;101945.45;1671905;83;21115;-88
2022/07/18 07:16:57;;;;;;;6.90;3.02;;;;;;;22.95;57.82;101949.94;1672140;83;21087;-87
2022/07/18 07:19:24;;;;;;;5.78;2.65;;;;;;;22.80;57.90;101951.41;1672178;84;21087;-88
2022/07/18 07:21:51;;;;;;;6.12;2.15;;;;;;;22.69;58.09;101952.80;1672355;83;21726;-87
2022/07/18 07:24:18;;;;;;;5.10;2.35;;;;;;;22.60;58.29;101948.83;1672130;84;21328;-88
2022/07/18 07:26:44;;;;;;;4.47;2.22;;;;;;;22.51;58.61;101951.14;1672105;84;21088;-88
2022/07/18 07:29:11;;;;;;;7.35;2.75;;;;;;;22.43;58.62;101948.92;1672030;83;21067;-88
2022/07/18 07:31:38;;;;;;;9.95;2.40;;;;;;;22.30;58.71;101953.48;1672653;83;21052;-88
2022/07/18 07:34:04;;;;;;;3.33;2.50;;;;;;;22.27;58.95;101952.14;1672605;84;21621;-88
2022/07/18 07:36:31;;;;;;;3.80;2.40;;;;;;;22.19;58.98;101940.53;1692590;84;21594;-87
2022/07/18 07:38:58;;;;;;;5.12;2.45;;;;;;;22.23;59.25;101951.23;1682558;84;21777;-88
2022/07/18 07:41:25;;;;;;;5.05;2.30;;;;;;;22.23;59.39;101955.71;1682663;84;21071;-88
2022/07/18 07:43:52;;;;;;;7.70;2.62;;;;;;;22.24;59.15;101954.37;1679816;84;21093;-88
2022/07/18 07:46:20;;;;;;;6.72;2.50;;;;;;;22.17;58.93;101961.99;1683959;84;21114;-88
2022/07/18 07:48:47;;;;;;;4.72;2.52;;;;;;;22.11;58.99;101956.20;1682809;84;21420;-88
2022/07/18 07:51:15;;;;;;;6.90;3.20;;;;;;;22.05;58.95;101960.67;1682368;84;21011;-88
2022/07/18 07:53:42;;;;;;;7.12;2.22;;;;;;;21.93;58.84;101959.82;1676247;84;21103;-88
2022/07/18 07:56:10;;;;;;;3.58;2.30;;;;;;;21.84;58.95;101962.52;1682002;84;21211;-88
2022/07/18 07:58:38;;;;;;;6.37;2.47;;;;;;;21.58;59.32;101961.69;1646744;84;42809;-88
2022/07/18 08:01:05;;;;;;;11.25;2.25;;;;;;;21.58;59.32;101961.69;1682380;84;21091;-88
2022/07/18 08:03:32;;;;;;;6.45;2.60;;;;;;;21.44;59.47;101962.59;1682605;84;21551;-88
2022/07/18 08:05:59;;;;;;;6.92;2.75;;;;;;;21.26;59.80;101941.14;1682508;83;21506;-88
2022/07/18 08:08:26;;;;;;;5.58;2.33;;;;;;;21.33;60.08;101963.02;1682032;84;21063;-88
2022/07/18 08:10:53;;;;;;;5.28;2.70;;;;;;;21.32;60.22;101960.80;1675303;84;22475;-88
2022/07/18 08:13:20;;;;;;;5.75;2.52;;;;;;;21.34;60.25;101961.68;1672130;85;21135;-88
2022/07/18 08:15:47;;;;;;;9.25;2.85;;;;;;;21.34;60.16;101954.07;1672605;84;21636;-88
2022/07/18 08:18:14;;;;;;;9.00;3.02;;;;;;;21.47;60.29;101958.59;1667452;84;21147;-88
2022/07/18 08:20:41;;;;;;;5.40;2.60;;;;;;;21.47;60.29;101958.59;1672237;85;21131;-88
2022/07/18 08:23:09;;;;;;;7.17;2.72;;;;;;;21.59;60.37;101959.47;1672362;84;21691;-88
2022/07/18 08:25:38;;;;;;;6.05;2.90;;;;;;;21.72;60.26;101963.45;1671977;85;21151;-87
2022/07/18 08:28:06;;;;;;;4.92;3.17;;;;;;;21.81;60.02;101970.59;1671675;85;21091;-88
2022/07/18 08:30:33;;;;;;;6.22;2.33;;;;;;;21.91;59.67;101968.78;1672305;84;21099;-88
2022/07/18 08:33:00;;;;;;;5.97;2.50;;;;;;;21.99;59.65;101963.39;1671970;84;21075;-88
2022/07/18 08:35:28;;;;;;;3.80;2.10;;;;;;;22.08;59.46;101955.31;1672415;84;21797;-88
2022/07/18 08:37:55;;;;;;;6.00;3.25;;;;;;;22.10;59.12;101957.08;1670188;84;21119;-88
2022/07/18 08:40:21;;;;;;;9.28;5.78;;;;;;;22.13;58.82;101962.45;1672180;84;21118;-88
2022/07/18 08:42:53;;;;;;;6.58;3.87;;;;;;;22.03;58.59;101937.00;1672729;85;21140;-87
2022/07/18 08:45:24;;;;;;;6.97;4.30;;;;;;;22.14;58.47;101964.22;1669645;84;21574;-88
2022/07/18 08:47:51;;;;;;;4.60;3.20;;;;;;;22.12;58.05;101963.78;1671998;84;21901;-88
2022/07/18 08:50:18;;;;;;;7.22;5.00;;;;;;;22.16;58.21;101960.19;1672803;85;21068;-87
2022/07/18 08:52:49;;;;;;;3.95;2.50;;;;;;;22.29;58.05;101959.27;1672518;84;21084;-88
2022/07/18 08:55:15;;;;;;;4.42;2.40;;;;;;;22.36;58.02;101962.84;1672943;85;21107;-88
2022/07/18 08:57:42;;;;;;;6.33;2.75;;;;;;;22.35;57.95;101958.35;1672421;85;22151;-88
2022/07/18 09:00:10;;;;;;;4.87;2.47;;;;;;;22.35;57.86;101954.79;1672285;85;21761;-88
2022/07/18 09:02:37;;;;;;;5.90;2.35;;;;;;;22.31;57.90;101957.47;1672155;84;21072;-88
2022/07/18 09:05:04;;;;;;;4.87;3.27;;;;;;;22.10;57.61;101966.92;1671693;84;21091;-88
2022/07/18 09:07:36;;;;;;;4.30;2.37;;;;;;;22.10;57.61;101966.92;1672247;84;21623;-88
2022/07/18 09:10:05;;;;;;;7.28;2.67;;;;;;;21.92;57.65;101950.02;1672039;85;21195;-88
2022/07/18 09:12:32;;;;;;;8.08;3.62;;;;;;;21.74;58.14;101965.67;1671599;85;22710;-88
2022/07/18 09:15:07;;;;;;;3.52;2.35;;;;;;;21.74;58.14;101965.67;1668274;84;21537;-88
2022/07/18 09:17:34;;;;;;;5.67;3.30;;;;;;;21.69;58.14;101958.54;1674822;84;21081;-88
2022/07/18 09:20:15;;;;;;;8.18;2.75;;;;;;;21.75;58.42;101962.54;1671448;84;21151;-88
2022/07/18 09:22:49;;;;;;;5.85;2.45;;;;;;;21.90;58.41;101955.83;1667217;84;21645;-88
2022/07/18 09:25:20;;;;;;;7.28;2.40;;;;;;;22.18;58.56;101948.13;1646553;85;21629;-88
2022/07/18 09:27:48;;;;;;;9.08;2.52;;;;;;;22.61;58.45;101951.51;1673609;85;21528;-88
2022/07/18 09:30:32;;;;;;;4.20;2.45;;;;;;;22.99;58.08;101948.13;1653752;85;20997;-89
2022/07/18 09:33:08;;;;;;;5.75;2.40;;;;;;;23.36;57.77;101943.38;1673994;84;21030;-88
2022/07/18 09:35:46;;;;;;;8.45;5.85;;;;;;;23.77;56.81;101951.48;1673319;85;22218;-88
2022/07/18 09:38:21;;;;;;;4.62;2.77;;;;;;;24.00;56.17;101952.59;1667050;84;21946;-88
2022/07/18 09:40:51;;;;;;;2.80;2.22;;;;;;;24.30;55.90;101950.91;1671383;84;21096;-88
2022/07/18 09:43:21;;;;;;;4.17;2.00;;;;;;;24.59;55.45;101947.86;1660797;84;21165;-88
2022/07/18 09:45:49;;;;;;;4.30;2.47;;;;;;;24.92;54.98;101941.05;1660576;84;21674;-88
2022/07/18 09:48:26;;;;;;;4.72;1.80;;;;;;;25.23;54.48;101935.20;1640252;85;21060;-89
2022/07/18 09:50:55;;;;;;;5.55;2.47;;;;;;;25.39;53.93;101911.55;1633749;86;22535;-88
2022/07/18 09:53:24;;;;;;;2.90;2.15;;;;;;;25.81;53.24;101937.28;1660922;84;21056;-88
2022/07/18 09:55:53;;;;;;;2.45;1.57;;;;;;;25.97;52.75;101931.14;1667830;84;21176;-89
2022/07/18 09:58:26;;;;;;;3.65;1.98;;;;;;;26.11;52.33;101939.85;1661972;85;21091;-88
2022/07/18 10:00:54;;;;;;;4.30;2.85;;;;;;;26.27;51.91;101935.47;1671909;84;21427;-88
2022/07/18 10:03:21;;;;;;;3.45;2.30;;;;;;;26.37;50.99;101935.68;1674164;84;21811;-88
2022/07/18 10:05:51;;;;;;;3.60;2.00;;;;;;;26.50;50.96;101935.86;1672862;84;21103;-88
2022/07/18 10:08:20;;;;;;;5.45;3.00;;;;;;;26.52;50.37;101941.20;1673656;84;21144;-88
2022/07/18 10:10:48;;;;;;;3.40;2.05;;;;;;;26.33;49.34;101943.42;1648803;84;21097;-89
2022/07/18 10:13:16;;;;;;;3.25;1.72;;;;;;;26.23;49.82;101945.44;1677500;85;21095;-89
2022/07/18 10:15:44;;;;;;;3.77;2.45;;;;;;;26.46;49.94;101939.52;1679401;85;21788;-88
2022/07/18 10:18:14;;;;;;;5.35;2.30;;;;;;;26.70;49.79;101942.16;1682290;84;21068;-89
2022/07/18 10:20:51;;;;;;;4.67;2.27;;;;;;;26.85;49.33;101943.61;1678297;84;21094;-89
2022/07/18 10:23:29;;;;;;;2.85;2.08;;;;;;;26.88;49.06;101945.34;1683386;85;21487;-88
2022/07/18 10:26:26;;;;;;;4.10;2.70;;;;;;;26.89;48.96;101949.36;1680648;85;21000;-89
2022/07/18 10:29:04;;;;;;;5.22;2.33;;;;;;;26.76;48.35;101950.58;1683330;84;22976;-90
2022/07/18 10:31:38;;;;;;;4.08;2.10;;;;;;;26.34;48.23;101952.84;1681777;83;20929;-88
2022/07/18 10:34:09;;;;;;;4.20;1.80;;;;;;;26.06;48.28;101953.01;1671244;83;21510;-88
2022/07/18 10:36:41;;;;;;;7.60;4.20;;;;;;;25.87;48.37;101953.81;1680213;85;21076;-89
2022/07/18 10:39:24;;;;;;;6.62;3.02;;;;;;;25.78;48.19;101957.56;1652468;85;21017;-89
2022/07/18 10:42:01;;;;;;;4.40;2.00;;;;;;;25.71;48.35;101948.69;1672063;84;21776;-89
2022/07/18 10:44:32;;;;;;;4.37;3.67;;;;;;;25.72;48.28;101941.04;1682712;84;20994;-87
2022/07/18 10:47:08;;;;;;;7.00;2.87;;;;;;;25.93;48.30;101945.15;1680112;84;21110;-87
2022/07/18 10:49:51;;;;;;;5.65;3.15;;;;;;;26.10;47.97;101950.20;1679887;84;21435;-90
2022/07/18 10:52:38;;;;;;;4.80;3.00;;;;;;;26.13;47.86;101943.88;1677656;85;21175;-88
2022/07/18 10:55:27;;;;;;;7.55;3.72;;;;;;;26.33;47.86;101945.69;1664616;85;21711;-88
2022/07/18 10:57:59;;;;;;;4.72;2.35;;;;;;;26.53;47.66;101945.22;1680154;84;21114;-88
2022/07/18 11:00:37;;;;;;;4.80;2.60;;;;;;;26.53;47.27;101945.22;1680252;84;21087;-89
2022/07/18 11:03:08;;;;;;;3.67;2.67;;;;;;;26.33;47.31;101944.34;1680234;85;21103;-88
2022/07/18 11:05:47;;;;;;;3.20;2.20;;;;;;;26.49;47.47;101935.89;1649095;85;21555;-88
2022/07/18 11:08:18;;;;;;;4.70;2.40;;;;;;;26.66;47.48;101944.52;1672908;83;22550;-90
2022/07/18 11:10:51;;;;;;;8.83;2.98;;;;;;;26.75;47.33;101939.38;1662063;84;21399;-88
2022/07/18 11:13:41;;;;;;;4.40;2.65;;;;;;;26.86;46.78;101949.45;1693688;83;29564;-88
2022/07/18 11:16:14;;;;;;;3.75;2.37;;;;;;;26.72;46.57;101938.08;1659277;85;21071;-88
2022/07/18 11:18:50;;;;;;;4.22;2.50;;;;;;;26.62;46.81;101939.23;1667941;83;21046;-89
2022/07/18 11:21:31;;;;;;;5.30;2.40;;;;;;;26.72;46.98;101940.78;1679311;83;21740;-88
2022/07/18 11:24:09;;;;;;;5.50;2.65;;;;;;;26.76;46.94;101937.08;1663971;83;21074;-88
2022/07/18 11:26:38;;;;;;;3.83;2.83;;;;;;;26.88;46.99;101942.20;1664135;83;21108;-88
2022/07/18 11:29:08;;;;;;;4.45;2.40;;;;;;;26.84;46.63;101942.30;1663957;83;21635;-88